sensor_id;sensor_type;location;lat;lon;timestamp;P1;durP1;ratioP1;P2;durP2;ratioP2
25231;SDS011;13176;51.140;6.290;2024-01-27T00:00:16;15.48;;;12.32;;
25231;SDS011;13176;51.140;6.290;2024-01-27T00:02:43;17.33;;;11.90;;
25231;SDS011;13176;51.140;6.290;2024-01-27T00:05:10;13.48;;;11.27;;
25231;SDS011;13176;51.140;6.290;2024-01-27T00:07:37;15.27;;;12.20;;
25231;SDS011;13176;51.140;6.290;2024-01-27T00:10:04;13.38;;;12.10;;
25231;SDS011;13176;51.140;6.290;2024-01-27T00:12:30;15.50;;;13.30;;
25231;SDS011;13176;51.140;6.290;2024-01-27T00:14:57;18.23;;;12.48;;
25231;SDS011;13176;51.140;6.290;2024-01-27T00:17:24;16.88;;;11.73;;
25231;SDS011;13176;51.140;6.290;2024-01-27T00:19:52;14.60;;;10.95;;
25231;SDS011;13176;51.140;6.290;2024-01-27T00:22:22;11.85;;;10.30;;
25231;SDS011;13176;51.140;6.290;2024-01-27T00:24:48;12.20;;;10.95;;
25231;SDS011;13176;51.140;6.290;2024-01-27T00:27:15;16.20;;;10.07;;
25231;SDS011;13176;51.140;6.290;2024-01-27T00:29:42;15.48;;;10.95;;
25231;SDS011;13176;51.140;6.290;2024-01-27T00:32:09;16.30;;;10.07;;
25231;SDS011;13176;51.140;6.290;2024-01-27T00:34:35;16.88;;;9.95;;
25231;SDS011;13176;51.140;6.290;2024-01-27T00:37:02;19.02;;;10.52;;
25231;SDS011;13176;51.140;6.290;2024-01-27T00:39:28;12.43;;;10.95;;
25231;SDS011;13176;51.140;6.290;2024-01-27T00:41:55;15.05;;;10.68;;
25231;SDS011;13176;51.140;6.290;2024-01-27T00:44:24;14.77;;;10.30;;
25231;SDS011;13176;51.140;6.290;2024-01-27T00:46:53;13.75;;;10.68;;
25231;SDS011;13176;51.140;6.290;2024-01-27T00:49:20;12.10;;;10.43;;
25231;SDS011;13176;51.140;6.290;2024-01-27T00:51:46;13.95;;;11.63;;
25231;SDS011;13176;51.140;6.290;2024-01-27T00:54:13;14.55;;;11.57;;
25231;SDS011;13176;51.140;6.290;2024-01-27T00:56:39;12.80;;;11.43;;
25231;SDS011;13176;51.140;6.290;2024-01-27T00:59:06;11.85;;;10.73;;
25231;SDS011;13176;51.140;6.290;2024-01-27T01:01:32;14.00;;;11.07;;
25231;SDS011;13176;51.140;6.290;2024-01-27T01:03:59;16.75;;;11.35;;
25231;SDS011;13176;51.140;6.290;2024-01-27T01:06:26;14.80;;;10.05;;
25231;SDS011;13176;51.140;6.290;2024-01-27T01:08:52;10.90;;;9.80;;
25231;SDS011;13176;51.140;6.290;2024-01-27T01:11:19;14.75;;;9.80;;
25231;SDS011;13176;51.140;6.290;2024-01-27T01:13:45;15.50;;;10.52;;
25231;SDS011;13176;51.140;6.290;2024-01-27T01:16:11;12.18;;;10.88;;
25231;SDS011;13176;51.140;6.290;2024-01-27T01:18:38;11.95;;;9.88;;
25231;SDS011;13176;51.140;6.290;2024-01-27T01:21:05;11.57;;;9.85;;
25231;SDS011;13176;51.140;6.290;2024-01-27T01:23:32;13.07;;;11.25;;
25231;SDS011;13176;51.140;6.290;2024-01-27T01:25:59;21.00;;;10.63;;
25231;SDS011;13176;51.140;6.290;2024-01-27T01:28:25;14.27;;;10.60;;
25231;SDS011;13176;51.140;6.290;2024-01-27T01:30:52;19.85;;;10.75;;
25231;SDS011;13176;51.140;6.290;2024-01-27T01:33:18;13.60;;;11.57;;
25231;SDS011;13176;51.140;6.290;2024-01-27T01:35:45;11.95;;;10.73;;
25231;SDS011;13176;51.140;6.290;2024-01-27T01:38:12;12.90;;;11.80;;
25231;SDS011;13176;51.140;6.290;2024-01-27T01:40:38;12.60;;;10.90;;
25231;SDS011;13176;51.140;6.290;2024-01-27T01:43:09;12.98;;;11.10;;
25231;SDS011;13176;51.140;6.290;2024-01-27T01:45:37;16.60;;;11.18;;
25231;SDS011;13176;51.140;6.290;2024-01-27T01:48:03;15.25;;;11.07;;
25231;SDS011;13176;51.140;6.290;2024-01-27T01:50:32;11.77;;;10.68;;
25231;SDS011;13176;51.140;6.290;2024-01-27T01:52:59;16.17;;;12.18;;
25231;SDS011;13176;51.140;6.290;2024-01-27T01:55:25;17.05;;;11.68;;
25231;SDS011;13176;51.140;6.290;2024-01-27T01:57:52;16.17;;;11.55;;
25231;SDS011;13176;51.140;6.290;2024-01-27T02:00:18;16.23;;;11.52;;
25231;SDS011;13176;51.140;6.290;2024-01-27T02:02:45;16.45;;;11.77;;
25231;SDS011;13176;51.140;6.290;2024-01-27T02:05:12;13.00;;;11.82;;
25231;SDS011;13176;51.140;6.290;2024-01-27T02:07:39;17.95;;;11.90;;
25231;SDS011;13176;51.140;6.290;2024-01-27T02:10:12;14.30;;;12.05;;
25231;SDS011;13176;51.140;6.290;2024-01-27T02:12:42;16.85;;;12.98;;
25231;SDS011;13176;51.140;6.290;2024-01-27T02:15:09;14.93;;;11.60;;
25231;SDS011;13176;51.140;6.290;2024-01-27T02:17:38;13.65;;;12.30;;
25231;SDS011;13176;51.140;6.290;2024-01-27T02:20:08;14.13;;;11.20;;
25231;SDS011;13176;51.140;6.290;2024-01-27T02:22:35;13.23;;;11.82;;
25231;SDS011;13176;51.140;6.290;2024-01-27T02:25:02;19.38;;;12.60;;
25231;SDS011;13176;51.140;6.290;2024-01-27T02:27:29;14.65;;;12.52;;
25231;SDS011;13176;51.140;6.290;2024-01-27T02:29:56;11.95;;;10.85;;
25231;SDS011;13176;51.140;6.290;2024-01-27T02:32:27;13.00;;;11.23;;
25231;SDS011;13176;51.140;6.290;2024-01-27T02:34:53;19.65;;;12.23;;
25231;SDS011;13176;51.140;6.290;2024-01-27T02:37:20;12.75;;;11.23;;
25231;SDS011;13176;51.140;6.290;2024-01-27T02:39:47;15.45;;;12.95;;
25231;SDS011;13176;51.140;6.290;2024-01-27T02:42:13;15.57;;;12.15;;
25231;SDS011;13176;51.140;6.290;2024-01-27T02:44:40;18.02;;;13.23;;
25231;SDS011;13176;51.140;6.290;2024-01-27T02:47:06;18.52;;;13.27;;
25231;SDS011;13176;51.140;6.290;2024-01-27T02:49:33;18.55;;;12.85;;
25231;SDS011;13176;51.140;6.290;2024-01-27T02:51:59;17.05;;;12.77;;
25231;SDS011;13176;51.140;6.290;2024-01-27T02:54:26;14.73;;;13.27;;
25231;SDS011;13176;51.140;6.290;2024-01-27T02:56:53;15.50;;;13.52;;
25231;SDS011;13176;51.140;6.290;2024-01-27T02:59:20;16.75;;;13.95;;
25231;SDS011;13176;51.140;6.290;2024-01-27T03:01:47;15.10;;;13.50;;
25231;SDS011;13176;51.140;6.290;2024-01-27T03:04:13;19.15;;;15.32;;
25231;SDS011;13176;51.140;6.290;2024-01-27T03:06:40;22.02;;;16.35;;
25231;SDS011;13176;51.140;6.290;2024-01-27T03:09:07;17.70;;;15.15;;
25231;SDS011;13176;51.140;6.290;2024-01-27T03:11:33;20.95;;;14.98;;
25231;SDS011;13176;51.140;6.290;2024-01-27T03:13:59;15.90;;;13.80;;
25231;SDS011;13176;51.140;6.290;2024-01-27T03:16:26;16.52;;;13.90;;
25231;SDS011;13176;51.140;6.290;2024-01-27T03:18:53;20.20;;;13.73;;
25231;SDS011;13176;51.140;6.290;2024-01-27T03:21:20;15.70;;;13.63;;
25231;SDS011;13176;51.140;6.290;2024-01-27T03:23:46;14.75;;;13.45;;
25231;SDS011;13176;51.140;6.290;2024-01-27T03:26:13;17.75;;;14.77;;
25231;SDS011;13176;51.140;6.290;2024-01-27T03:28:39;20.23;;;14.98;;
25231;SDS011;13176;51.140;6.290;2024-01-27T03:31:07;17.35;;;15.60;;
25231;SDS011;13176;51.140;6.290;2024-01-27T03:33:33;16.30;;;14.40;;
25231;SDS011;13176;51.140;6.290;2024-01-27T03:36:00;17.75;;;15.93;;
25231;SDS011;13176;51.140;6.290;2024-01-27T03:38:26;18.17;;;14.77;;
25231;SDS011;13176;51.140;6.290;2024-01-27T03:40:53;17.50;;;15.73;;
25231;SDS011;13176;51.140;6.290;2024-01-27T03:43:20;17.15;;;14.38;;
25231;SDS011;13176;51.140;6.290;2024-01-27T03:45:46;22.92;;;15.43;;
25231;SDS011;13176;51.140;6.290;2024-01-27T03:48:13;17.73;;;14.70;;
25231;SDS011;13176;51.140;6.290;2024-01-27T03:50:39;17.92;;;14.52;;
25231;SDS011;13176;51.140;6.290;2024-01-27T03:53:06;22.35;;;14.35;;
25231;SDS011;13176;51.140;6.290;2024-01-27T03:55:32;16.20;;;14.68;;
25231;SDS011;13176;51.140;6.290;2024-01-27T03:58:00;16.27;;;14.82;;
25231;SDS011;13176;51.140;6.290;2024-01-27T04:00:27;17.33;;;15.45;;
25231;SDS011;13176;51.140;6.290;2024-01-27T04:02:56;14.50;;;13.07;;
25231;SDS011;13176;51.140;6.290;2024-01-27T04:05:22;18.67;;;13.57;;
25231;SDS011;13176;51.140;6.290;2024-01-27T04:07:49;17.48;;;14.35;;
25231;SDS011;13176;51.140;6.290;2024-01-27T04:10:17;12.98;;;11.75;;
25231;SDS011;13176;51.140;6.290;2024-01-27T04:12:45;19.25;;;12.30;;
25231;SDS011;13176;51.140;6.290;2024-01-27T04:15:11;12.15;;;11.02;;
25231;SDS011;13176;51.140;6.290;2024-01-27T04:17:38;14.93;;;11.70;;
25231;SDS011;13176;51.140;6.290;2024-01-27T04:20:04;13.00;;;11.48;;
25231;SDS011;13176;51.140;6.290;2024-01-27T04:22:33;14.80;;;11.93;;
25231;SDS011;13176;51.140;6.290;2024-01-27T04:25:00;14.57;;;11.35;;
25231;SDS011;13176;51.140;6.290;2024-01-27T04:27:27;16.00;;;11.00;;
25231;SDS011;13176;51.140;6.290;2024-01-27T04:29:54;15.52;;;10.43;;
25231;SDS011;13176;51.140;6.290;2024-01-27T04:32:20;11.45;;;10.23;;
25231;SDS011;13176;51.140;6.290;2024-01-27T04:34:48;17.13;;;11.00;;
25231;SDS011;13176;51.140;6.290;2024-01-27T04:37:15;13.15;;;11.40;;
25231;SDS011;13176;51.140;6.290;2024-01-27T04:39:41;18.25;;;11.45;;
25231;SDS011;13176;51.140;6.290;2024-01-27T04:42:08;15.40;;;11.52;;
25231;SDS011;13176;51.140;6.290;2024-01-27T04:44:35;18.08;;;11.43;;
25231;SDS011;13176;51.140;6.290;2024-01-27T04:47:01;16.77;;;11.18;;
25231;SDS011;13176;51.140;6.290;2024-01-27T04:49:28;17.55;;;13.02;;
25231;SDS011;13176;51.140;6.290;2024-01-27T04:51:54;22.05;;;13.13;;
25231;SDS011;13176;51.140;6.290;2024-01-27T04:54:21;14.55;;;12.77;;
25231;SDS011;13176;51.140;6.290;2024-01-27T04:56:47;13.95;;;12.63;;
25231;SDS011;13176;51.140;6.290;2024-01-27T04:59:14;23.13;;;12.27;;
25231;SDS011;13176;51.140;6.290;2024-01-27T05:01:43;15.55;;;13.65;;
25231;SDS011;13176;51.140;6.290;2024-01-27T05:04:11;16.75;;;12.05;;
25231;SDS011;13176;51.140;6.290;2024-01-27T05:06:43;15.77;;;11.77;;
25231;SDS011;13176;51.140;6.290;2024-01-27T05:09:10;17.58;;;11.20;;
25231;SDS011;13176;51.140;6.290;2024-01-27T05:11:36;13.88;;;11.65;;
25231;SDS011;13176;51.140;6.290;2024-01-27T05:14:03;19.20;;;11.82;;
25231;SDS011;13176;51.140;6.290;2024-01-27T05:16:29;19.20;;;11.90;;
25231;SDS011;13176;51.140;6.290;2024-01-27T05:18:56;21.63;;;12.07;;
25231;SDS011;13176;51.140;6.290;2024-01-27T05:21:23;16.75;;;12.02;;
25231;SDS011;13176;51.140;6.290;2024-01-27T05:23:49;19.05;;;10.45;;
25231;SDS011;13176;51.140;6.290;2024-01-27T05:26:16;15.38;;;10.63;;
25231;SDS011;13176;51.140;6.290;2024-01-27T05:28:42;15.45;;;10.68;;
25231;SDS011;13176;51.140;6.290;2024-01-27T05:31:09;15.38;;;10.57;;
25231;SDS011;13176;51.140;6.290;2024-01-27T05:33:35;13.52;;;10.77;;
25231;SDS011;13176;51.140;6.290;2024-01-27T05:36:03;18.27;;;11.00;;
25231;SDS011;13176;51.140;6.290;2024-01-27T05:38:30;17.33;;;11.00;;
25231;SDS011;13176;51.140;6.290;2024-01-27T05:41:01;19.55;;;10.98;;
25231;SDS011;13176;51.140;6.290;2024-01-27T05:43:28;10.98;;;10.00;;
25231;SDS011;13176;51.140;6.290;2024-01-27T05:45:54;19.63;;;10.75;;
25231;SDS011;13176;51.140;6.290;2024-01-27T05:48:21;13.18;;;9.63;;
25231;SDS011;13176;51.140;6.290;2024-01-27T05:50:54;15.60;;;10.73;;
25231;SDS011;13176;51.140;6.290;2024-01-27T05:53:24;15.95;;;11.15;;
25231;SDS011;13176;51.140;6.290;2024-01-27T05:55:52;12.80;;;9.43;;
25231;SDS011;13176;51.140;6.290;2024-01-27T05:58:19;15.50;;;10.55;;
25231;SDS011;13176;51.140;6.290;2024-01-27T06:00:49;16.92;;;10.15;;
25231;SDS011;13176;51.140;6.290;2024-01-27T06:03:16;18.45;;;10.13;;
25231;SDS011;13176;51.140;6.290;2024-01-27T06:05:43;13.77;;;9.95;;
25231;SDS011;13176;51.140;6.290;2024-01-27T06:08:10;11.75;;;9.18;;
25231;SDS011;13176;51.140;6.290;2024-01-27T06:10:37;12.07;;;9.27;;
25231;SDS011;13176;51.140;6.290;2024-01-27T06:13:04;18.73;;;9.68;;
25231;SDS011;13176;51.140;6.290;2024-01-27T06:15:30;18.63;;;9.73;;
25231;SDS011;13176;51.140;6.290;2024-01-27T06:17:57;14.85;;;10.57;;
25231;SDS011;13176;51.140;6.290;2024-01-27T06:20:24;15.68;;;10.43;;
25231;SDS011;13176;51.140;6.290;2024-01-27T06:22:51;13.57;;;10.07;;
25231;SDS011;13176;51.140;6.290;2024-01-27T06:25:20;10.98;;;9.85;;
25231;SDS011;13176;51.140;6.290;2024-01-27T06:27:47;16.70;;;10.48;;
25231;SDS011;13176;51.140;6.290;2024-01-27T06:30:15;17.77;;;9.25;;
25231;SDS011;13176;51.140;6.290;2024-01-27T06:32:42;12.85;;;9.25;;
25231;SDS011;13176;51.140;6.290;2024-01-27T06:35:09;16.30;;;10.10;;
25231;SDS011;13176;51.140;6.290;2024-01-27T06:37:36;18.50;;;10.15;;
25231;SDS011;13176;51.140;6.290;2024-01-27T06:40:02;17.00;;;10.50;;
25231;SDS011;13176;51.140;6.290;2024-01-27T06:42:29;20.75;;;10.45;;
25231;SDS011;13176;51.140;6.290;2024-01-27T06:44:57;18.90;;;11.98;;
25231;SDS011;13176;51.140;6.290;2024-01-27T06:47:23;11.13;;;10.02;;
25231;SDS011;13176;51.140;6.290;2024-01-27T06:49:50;19.40;;;11.75;;
25231;SDS011;13176;51.140;6.290;2024-01-27T06:52:17;14.45;;;11.45;;
25231;SDS011;13176;51.140;6.290;2024-01-27T06:54:44;15.45;;;10.75;;
25231;SDS011;13176;51.140;6.290;2024-01-27T06:57:20;13.57;;;10.60;;
25231;SDS011;13176;51.140;6.290;2024-01-27T06:59:50;12.02;;;10.80;;
25231;SDS011;13176;51.140;6.290;2024-01-27T07:02:24;16.38;;;11.65;;
25231;SDS011;13176;51.140;6.290;2024-01-27T07:04:57;13.52;;;10.65;;
25231;SDS011;13176;51.140;6.290;2024-01-27T07:07:25;18.35;;;12.25;;
25231;SDS011;13176;51.140;6.290;2024-01-27T07:09:56;15.73;;;11.38;;
25231;SDS011;13176;51.140;6.290;2024-01-27T07:12:24;16.85;;;11.00;;
25231;SDS011;13176;51.140;6.290;2024-01-27T07:14:52;14.70;;;10.35;;
25231;SDS011;13176;51.140;6.290;2024-01-27T07:17:22;14.60;;;10.85;;
25231;SDS011;13176;51.140;6.290;2024-01-27T07:19:49;14.50;;;11.02;;
25231;SDS011;13176;51.140;6.290;2024-01-27T07:22:15;15.23;;;10.70;;
25231;SDS011;13176;51.140;6.290;2024-01-27T07:24:44;14.73;;;10.90;;
25231;SDS011;13176;51.140;6.290;2024-01-27T07:27:14;15.35;;;11.93;;
25231;SDS011;13176;51.140;6.290;2024-01-27T07:29:41;15.13;;;11.13;;
25231;SDS011;13176;51.140;6.290;2024-01-27T07:32:07;12.70;;;11.27;;
25231;SDS011;13176;51.140;6.290;2024-01-27T07:34:42;13.52;;;10.57;;
25231;SDS011;13176;51.140;6.290;2024-01-27T07:37:09;14.77;;;11.82;;
25231;SDS011;13176;51.140;6.290;2024-01-27T07:39:36;12.60;;;11.23;;
25231;SDS011;13176;51.140;6.290;2024-01-27T07:42:03;16.63;;;12.30;;
25231;SDS011;13176;51.140;6.290;2024-01-27T07:44:29;16.73;;;12.75;;
25231;SDS011;13176;51.140;6.290;2024-01-27T07:46:56;15.10;;;12.30;;
25231;SDS011;13176;51.140;6.290;2024-01-27T07:49:22;14.32;;;12.68;;
25231;SDS011;13176;51.140;6.290;2024-01-27T07:51:49;22.15;;;14.48;;
25231;SDS011;13176;51.140;6.290;2024-01-27T07:54:15;17.08;;;14.57;;
25231;SDS011;13176;51.140;6.290;2024-01-27T07:56:42;15.98;;;14.13;;
25231;SDS011;13176;51.140;6.290;2024-01-27T07:59:08;16.60;;;14.35;;
25231;SDS011;13176;51.140;6.290;2024-01-27T08:01:40;15.55;;;13.80;;
25231;SDS011;13176;51.140;6.290;2024-01-27T08:04:07;20.70;;;14.50;;
25231;SDS011;13176;51.140;6.290;2024-01-27T08:06:45;18.33;;;14.43;;
25231;SDS011;13176;51.140;6.290;2024-01-27T08:09:16;16.77;;;13.85;;
25231;SDS011;13176;51.140;6.290;2024-01-27T08:11:43;19.13;;;13.70;;
25231;SDS011;13176;51.140;6.290;2024-01-27T08:14:10;22.50;;;14.05;;
25231;SDS011;13176;51.140;6.290;2024-01-27T08:16:36;17.95;;;14.38;;
25231;SDS011;13176;51.140;6.290;2024-01-27T08:19:03;21.48;;;12.75;;
25231;SDS011;13176;51.140;6.290;2024-01-27T08:21:29;13.15;;;11.93;;
25231;SDS011;13176;51.140;6.290;2024-01-27T08:23:56;20.02;;;13.45;;
25231;SDS011;13176;51.140;6.290;2024-01-27T08:26:22;20.60;;;13.38;;
25231;SDS011;13176;51.140;6.290;2024-01-27T08:28:49;17.10;;;13.73;;
25231;SDS011;13176;51.140;6.290;2024-01-27T08:31:15;20.58;;;13.38;;
25231;SDS011;13176;51.140;6.290;2024-01-27T08:33:42;14.20;;;12.75;;
25231;SDS011;13176;51.140;6.290;2024-01-27T08:36:12;15.00;;;13.05;;
25231;SDS011;13176;51.140;6.290;2024-01-27T08:38:40;15.60;;;13.57;;
25231;SDS011;13176;51.140;6.290;2024-01-27T08:41:06;13.80;;;12.43;;
25231;SDS011;13176;51.140;6.290;2024-01-27T08:43:33;21.08;;;13.75;;
25231;SDS011;13176;51.140;6.290;2024-01-27T08:45:59;16.45;;;13.32;;
25231;SDS011;13176;51.140;6.290;2024-01-27T08:48:29;16.65;;;13.05;;
25231;SDS011;13176;51.140;6.290;2024-01-27T08:50:56;18.60;;;12.38;;
25231;SDS011;13176;51.140;6.290;2024-01-27T08:53:22;15.75;;;13.35;;
25231;SDS011;13176;51.140;6.290;2024-01-27T08:55:49;16.67;;;12.95;;
25231;SDS011;13176;51.140;6.290;2024-01-27T08:58:15;15.98;;;11.38;;
25231;SDS011;13176;51.140;6.290;2024-01-27T09:00:42;15.10;;;12.60;;
25231;SDS011;13176;51.140;6.290;2024-01-27T09:03:09;13.48;;;12.00;;
25231;SDS011;13176;51.140;6.290;2024-01-27T09:05:35;14.50;;;12.27;;
25231;SDS011;13176;51.140;6.290;2024-01-27T09:08:02;18.70;;;11.68;;
25231;SDS011;13176;51.140;6.290;2024-01-27T09:10:29;13.02;;;11.75;;
25231;SDS011;13176;51.140;6.290;2024-01-27T09:15:35;12.05;;;9.75;;
25231;SDS011;13176;51.140;6.290;2024-01-27T09:18:01;16.90;;;11.35;;
25231;SDS011;13176;51.140;6.290;2024-01-27T09:20:28;14.13;;;10.98;;
25231;SDS011;13176;51.140;6.290;2024-01-27T09:22:54;19.75;;;11.77;;
25231;SDS011;13176;51.140;6.290;2024-01-27T09:25:21;12.82;;;10.82;;
25231;SDS011;13176;51.140;6.290;2024-01-27T09:27:48;14.27;;;11.82;;
25231;SDS011;13176;51.140;6.290;2024-01-27T09:30:14;14.40;;;11.52;;
25231;SDS011;13176;51.140;6.290;2024-01-27T09:32:41;14.00;;;12.77;;
25231;SDS011;13176;51.140;6.290;2024-01-27T09:35:08;11.70;;;10.27;;
25231;SDS011;13176;51.140;6.290;2024-01-27T09:37:34;16.05;;;10.95;;
25231;SDS011;13176;51.140;6.290;2024-01-27T09:40:01;12.70;;;11.40;;
25231;SDS011;13176;51.140;6.290;2024-01-27T09:42:29;19.75;;;10.80;;
25231;SDS011;13176;51.140;6.290;2024-01-27T09:44:59;15.18;;;10.82;;
25231;SDS011;13176;51.140;6.290;2024-01-27T09:47:28;11.60;;;9.63;;
25231;SDS011;13176;51.140;6.290;2024-01-27T09:49:54;13.45;;;10.02;;
25231;SDS011;13176;51.140;6.290;2024-01-27T09:52:21;11.05;;;9.52;;
25231;SDS011;13176;51.140;6.290;2024-01-27T09:54:47;13.32;;;8.98;;
25231;SDS011;13176;51.140;6.290;2024-01-27T09:57:14;13.52;;;9.15;;
25231;SDS011;13176;51.140;6.290;2024-01-27T09:59:41;15.10;;;9.57;;
25231;SDS011;13176;51.140;6.290;2024-01-27T10:02:11;11.88;;;8.80;;
25231;SDS011;13176;51.140;6.290;2024-01-27T10:04:40;13.20;;;8.27;;
25231;SDS011;13176;51.140;6.290;2024-01-27T10:07:08;14.60;;;8.48;;
25231;SDS011;13176;51.140;6.290;2024-01-27T10:09:35;21.67;;;9.50;;
25231;SDS011;13176;51.140;6.290;2024-01-27T10:12:02;11.40;;;8.48;;
25231;SDS011;13176;51.140;6.290;2024-01-27T10:14:39;23.00;;;8.80;;
25231;SDS011;13176;51.140;6.290;2024-01-27T10:17:08;13.05;;;8.55;;
25231;SDS011;13176;51.140;6.290;2024-01-27T10:19:37;19.48;;;9.23;;
25231;SDS011;13176;51.140;6.290;2024-01-27T10:22:10;15.05;;;11.05;;
25231;SDS011;13176;51.140;6.290;2024-01-27T10:24:36;17.33;;;10.95;;
25231;SDS011;13176;51.140;6.290;2024-01-27T10:27:03;11.98;;;10.63;;
25231;SDS011;13176;51.140;6.290;2024-01-27T10:29:30;16.30;;;11.70;;
25231;SDS011;13176;51.140;6.290;2024-01-27T10:35:44;15.52;;;9.02;;
25231;SDS011;13176;51.140;6.290;2024-01-27T10:38:11;14.32;;;9.38;;
25231;SDS011;13176;51.140;6.290;2024-01-27T10:40:38;13.73;;;8.82;;
25231;SDS011;13176;51.140;6.290;2024-01-27T10:43:14;16.30;;;10.07;;
25231;SDS011;13176;51.140;6.290;2024-01-27T10:45:42;15.05;;;8.10;;
25231;SDS011;13176;51.140;6.290;2024-01-27T10:48:11;23.38;;;8.77;;
25231;SDS011;13176;51.140;6.290;2024-01-27T10:51:07;13.55;;;7.57;;
25231;SDS011;13176;51.140;6.290;2024-01-27T10:53:38;14.85;;;8.40;;
25231;SDS011;13176;51.140;6.290;2024-01-27T10:56:48;12.82;;;9.35;;
25231;SDS011;13176;51.140;6.290;2024-01-27T10:59:30;13.02;;;11.80;;
25231;SDS011;13176;51.140;6.290;2024-01-27T11:01:58;13.02;;;10.77;;
25231;SDS011;13176;51.140;6.290;2024-01-27T11:04:26;18.55;;;10.00;;
25231;SDS011;13176;51.140;6.290;2024-01-27T11:06:55;12.57;;;8.90;;
25231;SDS011;13176;51.140;6.290;2024-01-27T11:09:23;10.50;;;8.95;;
25231;SDS011;13176;51.140;6.290;2024-01-27T11:11:50;10.45;;;8.38;;
25231;SDS011;13176;51.140;6.290;2024-01-27T11:14:17;15.93;;;7.80;;
25231;SDS011;13176;51.140;6.290;2024-01-27T11:16:45;11.00;;;6.78;;
25231;SDS011;13176;51.140;6.290;2024-01-27T11:19:16;8.77;;;6.10;;
25231;SDS011;13176;51.140;6.290;2024-01-27T11:21:43;9.13;;;6.57;;
25231;SDS011;13176;51.140;6.290;2024-01-27T11:24:16;11.38;;;7.22;;
25231;SDS011;13176;51.140;6.290;2024-01-27T11:29:11;14.30;;;8.27;;
25231;SDS011;13176;51.140;6.290;2024-01-27T11:31:48;13.07;;;9.98;;
25231;SDS011;13176;51.140;6.290;2024-01-27T11:34:14;10.73;;;9.65;;
25231;SDS011;13176;51.140;6.290;2024-01-27T11:36:46;11.30;;;7.90;;
25231;SDS011;13176;51.140;6.290;2024-01-27T11:39:28;8.13;;;7.00;;
25231;SDS011;13176;51.140;6.290;2024-01-27T11:42:08;9.15;;;7.22;;
25231;SDS011;13176;51.140;6.290;2024-01-27T11:44:40;10.15;;;7.72;;
25231;SDS011;13176;51.140;6.290;2024-01-27T11:47:17;11.25;;;9.52;;
25231;SDS011;13176;51.140;6.290;2024-01-27T11:49:51;12.60;;;8.85;;
25231;SDS011;13176;51.140;6.290;2024-01-27T11:52:24;10.50;;;7.95;;
25231;SDS011;13176;51.140;6.290;2024-01-27T11:54:57;7.80;;;7.03;;
25231;SDS011;13176;51.140;6.290;2024-01-27T11:57:25;10.80;;;6.97;;
25231;SDS011;13176;51.140;6.290;2024-01-27T11:59:52;12.45;;;7.45;;
25231;SDS011;13176;51.140;6.290;2024-01-27T12:02:20;13.60;;;8.95;;
25231;SDS011;13176;51.140;6.290;2024-01-27T12:04:47;11.20;;;8.32;;
25231;SDS011;13176;51.140;6.290;2024-01-27T12:07:14;11.52;;;6.82;;
25231;SDS011;13176;51.140;6.290;2024-01-27T12:09:41;10.98;;;6.65;;
25231;SDS011;13176;51.140;6.290;2024-01-27T12:12:08;10.45;;;7.00;;
25231;SDS011;13176;51.140;6.290;2024-01-27T12:14:41;9.68;;;6.05;;
25231;SDS011;13176;51.140;6.290;2024-01-27T12:17:11;9.63;;;6.43;;
25231;SDS011;13176;51.140;6.290;2024-01-27T12:19:38;6.18;;;5.47;;
25231;SDS011;13176;51.140;6.290;2024-01-27T12:22:05;13.63;;;6.53;;
25231;SDS011;13176;51.140;6.290;2024-01-27T12:24:46;9.70;;;6.18;;
25231;SDS011;13176;51.140;6.290;2024-01-27T12:27:13;14.77;;;7.22;;
25231;SDS011;13176;51.140;6.290;2024-01-27T12:29:42;10.57;;;6.78;;
25231;SDS011;13176;51.140;6.290;2024-01-27T12:32:09;14.57;;;7.63;;
25231;SDS011;13176;51.140;6.290;2024-01-27T12:34:39;10.27;;;7.07;;
25231;SDS011;13176;51.140;6.290;2024-01-27T12:37:07;10.90;;;7.07;;
25231;SDS011;13176;51.140;6.290;2024-01-27T12:39:35;8.93;;;7.07;;
25231;SDS011;13176;51.140;6.290;2024-01-27T12:42:01;9.40;;;6.43;;
25231;SDS011;13176;51.140;6.290;2024-01-27T12:44:28;11.63;;;7.13;;
25231;SDS011;13176;51.140;6.290;2024-01-27T13:09:31;8.13;;;7.28;;
25231;SDS011;13176;51.140;6.290;2024-01-27T13:12:01;8.23;;;7.10;;
25231;SDS011;13176;51.140;6.290;2024-01-27T13:14:29;9.38;;;7.70;;
25231;SDS011;13176;51.140;6.290;2024-01-27T13:16:55;10.40;;;8.55;;
25231;SDS011;13176;51.140;6.290;2024-01-27T13:19:26;9.50;;;7.28;;
25231;SDS011;13176;51.140;6.290;2024-01-27T13:21:54;10.77;;;8.15;;
25231;SDS011;13176;51.140;6.290;2024-01-27T13:24:20;11.88;;;8.02;;
25231;SDS011;13176;51.140;6.290;2024-01-27T13:26:47;10.27;;;8.27;;
25231;SDS011;13176;51.140;6.290;2024-01-27T13:29:13;9.00;;;7.90;;
25231;SDS011;13176;51.140;6.290;2024-01-27T13:31:40;10.25;;;8.35;;
25231;SDS011;13176;51.140;6.290;2024-01-27T13:34:06;10.18;;;7.65;;
25231;SDS011;13176;51.140;6.290;2024-01-27T13:36:33;8.70;;;7.40;;
25231;SDS011;13176;51.140;6.290;2024-01-27T13:39:00;8.38;;;7.57;;
25231;SDS011;13176;51.140;6.290;2024-01-27T13:41:27;8.63;;;7.82;;
25231;SDS011;13176;51.140;6.290;2024-01-27T13:43:53;11.07;;;7.10;;
25231;SDS011;13176;51.140;6.290;2024-01-27T13:46:19;9.80;;;7.82;;
25231;SDS011;13176;51.140;6.290;2024-01-27T13:48:48;8.43;;;7.10;;
25231;SDS011;13176;51.140;6.290;2024-01-27T13:51:15;10.52;;;8.15;;
25231;SDS011;13176;51.140;6.290;2024-01-27T13:53:42;9.30;;;8.30;;
25231;SDS011;13176;51.140;6.290;2024-01-27T13:56:13;9.13;;;6.28;;
25231;SDS011;13176;51.140;6.290;2024-01-27T13:58:43;9.73;;;7.95;;
25231;SDS011;13176;51.140;6.290;2024-01-27T14:01:09;12.80;;;7.85;;
25231;SDS011;13176;51.140;6.290;2024-01-27T14:03:36;11.32;;;7.95;;
25231;SDS011;13176;51.140;6.290;2024-01-27T14:06:04;10.27;;;8.02;;
25231;SDS011;13176;51.140;6.290;2024-01-27T14:08:32;18.73;;;16.65;;
25231;SDS011;13176;51.140;6.290;2024-01-27T14:10:59;10.38;;;7.93;;
25231;SDS011;13176;51.140;6.290;2024-01-27T14:13:25;13.65;;;7.68;;
25231;SDS011;13176;51.140;6.290;2024-01-27T14:15:52;11.52;;;7.43;;
25231;SDS011;13176;51.140;6.290;2024-01-27T14:18:18;7.95;;;7.15;;
25231;SDS011;13176;51.140;6.290;2024-01-27T14:20:48;10.48;;;7.00;;
25231;SDS011;13176;51.140;6.290;2024-01-27T14:23:15;9.60;;;7.35;;
25231;SDS011;13176;51.140;6.290;2024-01-27T14:25:42;14.35;;;9.05;;
25231;SDS011;13176;51.140;6.290;2024-01-27T14:28:12;10.07;;;7.20;;
25231;SDS011;13176;51.140;6.290;2024-01-27T14:30:40;7.55;;;6.78;;
25231;SDS011;13176;51.140;6.290;2024-01-27T14:33:07;9.43;;;6.97;;
25231;SDS011;13176;51.140;6.290;2024-01-27T14:35:34;12.25;;;6.88;;
25231;SDS011;13176;51.140;6.290;2024-01-27T14:38:00;8.68;;;6.45;;
25231;SDS011;13176;51.140;6.290;2024-01-27T14:40:27;12.20;;;7.65;;
25231;SDS011;13176;51.140;6.290;2024-01-27T14:42:53;6.93;;;6.13;;
25231;SDS011;13176;51.140;6.290;2024-01-27T14:45:20;12.68;;;7.60;;
25231;SDS011;13176;51.140;6.290;2024-01-27T14:47:46;11.60;;;6.85;;
25231;SDS011;13176;51.140;6.290;2024-01-27T14:50:13;9.02;;;7.30;;
25231;SDS011;13176;51.140;6.290;2024-01-27T14:52:41;10.27;;;7.60;;
25231;SDS011;13176;51.140;6.290;2024-01-27T14:55:07;8.13;;;6.32;;
25231;SDS011;13176;51.140;6.290;2024-01-27T14:58:49;9.60;;;6.65;;
25231;SDS011;13176;51.140;6.290;2024-01-27T15:01:20;9.35;;;6.95;;
25231;SDS011;13176;51.140;6.290;2024-01-27T15:03:48;7.43;;;6.65;;